Time;durP1;ratioP1;P1;durP2;ratioP2;P2;SDS_P1;SDS_P2;PMS_P1;PMS_P2;Temp;Humidity;BMP_temperature;BMP_pressure;BME280_temperature;BME280_humidity;BME280_pressure;Samples;Min_cycle;Max_cycle;Signal;HPM_P1;HPM_P2
2024/01/18 00:01:35;;;;;;;12.70;8.05;;;;;;;-1.30;100.00;99035.19;4976583;28;20031;-92
2024/01/18 00:04:00;;;;;;;10.70;7.65;;;;;;;-1.28;100.00;99048.50;4961787;28;20029;-91
2024/01/18 00:06:27;;;;;;;12.40;7.55;;;;;;;-1.25;100.00;99053.69;5009681;28;20096;-92
2024/01/18 00:08:52;;;;;;;13.90;8.35;;;;;;;-1.27;100.00;99045.72;5010166;28;20076;-92
2024/01/18 00:11:18;;;;;;;11.55;7.53;;;;;;;-1.27;100.00;99050.25;4961290;28;20034;-91
2024/01/18 00:13:47;;;;;;;14.82;8.35;;;;;;;-1.31;100.00;99039.69;4993257;28;20033;-90
2024/01/18 00:16:12;;;;;;;9.45;7.50;;;;;;;-1.28;100.00;99045.81;4992941;28;20019;-90
2024/01/18 00:18:38;;;;;;;14.23;7.55;;;;;;;-1.27;100.00;99035.00;4960017;28;20553;-90
2024/01/18 00:21:04;;;;;;;10.77;8.25;;;;;;;-1.26;100.00;99043.91;4960307;28;20030;-90
2024/01/18 00:23:30;;;;;;;11.15;8.18;;;;;;;-1.28;100.00;99048.50;4993243;28;20051;-90
2024/01/18 00:25:56;;;;;;;13.63;8.52;;;;;;;-1.30;100.00;99051.28;4976708;28;20035;-90
2024/01/18 00:28:21;;;;;;;14.43;8.43;;;;;;;-1.25;100.00;99053.69;4960678;28;20033;-90
2024/01/18 00:30:46;;;;;;;14.45;8.23;;;;;;;-1.21;100.00;99066.00;4979694;28;20026;-89
2024/01/18 00:33:13;;;;;;;12.38;8.40;;;;;;;-1.30;100.00;99062.91;4964996;28;20105;-90
2024/01/18 00:35:39;;;;;;;11.02;7.88;;;;;;;-1.27;100.00;99077.94;4966877;28;20037;-91
2024/01/18 00:38:04;;;;;;;11.25;7.63;;;;;;;-1.25;100.00;99083.22;4976479;28;20038;-90
2024/01/18 00:40:32;;;;;;;12.02;8.77;;;;;;;-1.28;100.00;99080.72;4960803;28;20149;-90
2024/01/18 00:42:58;;;;;;;17.27;8.68;;;;;;;-1.29;100.00;99085.25;4960139;28;20049;-91
2024/01/18 00:45:23;;;;;;;12.88;8.85;;;;;;;-1.31;100.00;99081.78;4960384;28;20049;-91
2024/01/18 00:47:49;;;;;;;17.35;9.02;;;;;;;-1.23;100.00;99084.88;4960349;28;20496;-91
2024/01/18 00:50:15;;;;;;;14.27;8.50;;;;;;;-1.27;100.00;99091.38;4959904;28;20395;-91
2024/01/18 00:52:40;;;;;;;11.38;8.40;;;;;;;-1.29;100.00;99079.88;4976054;28;20489;-91
2024/01/18 00:55:07;;;;;;;10.75;8.18;;;;;;;-1.23;100.00;99092.94;4959938;28;20026;-91
2024/01/18 00:57:33;;;;;;;12.75;8.80;;;;;;;-1.19;100.00;99098.97;4960363;28;20028;-92
2024/01/18 00:59:59;;;;;;;14.55;8.75;;;;;;;-1.32;100.00;99086.28;4961323;28;20125;-92
2024/01/18 01:02:25;;;;;;;14.38;9.40;;;;;;;-1.23;100.00;99100.09;4961464;28;20026;-91
2024/01/18 01:04:50;;;;;;;14.25;8.48;;;;;;;-1.25;100.00;99096.66;4975930;28;20037;-91
2024/01/18 01:07:16;;;;;;;17.98;8.55;;;;;;;-1.34;100.00;99101.63;4960013;28;20139;-91
2024/01/18 01:09:41;;;;;;;13.68;8.82;;;;;;;-1.40;100.00;99096.59;4959980;28;20048;-91
2024/01/18 01:12:08;;;;;;;13.27;9.20;;;;;;;-1.42;100.00;99108.41;4976175;28;20492;-91
2024/01/18 01:14:33;;;;;;;12.07;9.07;;;;;;;-1.36;100.00;99114.28;4976475;28;20030;-91
2024/01/18 01:16:59;;;;;;;13.13;9.18;;;;;;;-1.36;100.00;99121.44;4975802;28;20030;-91
2024/01/18 01:19:24;;;;;;;15.27;8.73;;;;;;;-1.33;100.00;99124.81;4960412;28;20038;-91
2024/01/18 01:21:50;;;;;;;16.40;9.27;;;;;;;-1.38;100.00;99124.19;4960643;28;20357;-92
2024/01/18 01:24:15;;;;;;;16.65;9.07;;;;;;;-1.40;100.00;99119.91;4978969;28;20030;-91
2024/01/18 01:26:40;;;;;;;15.07;9.25;;;;;;;-1.38;100.00;99121.53;4979255;28;20041;-91
2024/01/18 01:29:08;;;;;;;15.55;9.60;;;;;;;-1.38;100.00;99126.88;4963484;28;20035;-91
2024/01/18 01:31:33;;;;;;;16.17;8.82;;;;;;;-1.39;100.00;99125.19;4963383;28;20030;-91
2024/01/18 01:33:59;;;;;;;17.63;9.32;;;;;;;-1.42;100.00;99125.34;4964668;28;20035;-95
2024/01/18 01:36:27;;;;;;;17.27;8.75;;;;;;;-1.40;100.00;99125.25;4982846;28;20113;-96
2024/01/18 01:38:52;;;;;;;14.95;9.43;;;;;;;-1.45;100.00;99120.16;4999355;28;20026;-95
2024/01/18 01:41:20;;;;;;;13.38;8.98;;;;;;;-1.39;100.00;99135.91;4983745;28;20065;-96
2024/01/18 01:44:02;;;;;;;16.50;9.55;;;;;;;-1.31;100.00;99144.38;5000026;28;20041;-95
2024/01/18 01:46:28;;;;;;;15.38;9.25;;;;;;;-1.37;100.00;99142.06;4983577;28;20475;-95
2024/01/18 01:49:02;;;;;;;11.70;8.50;;;;;;;-1.42;100.00;99138.78;4981500;28;20041;-96
2024/01/18 01:51:34;;;;;;;13.80;9.85;;;;;;;-1.35;100.00;99150.00;4997256;28;20019;-96
2024/01/18 01:54:04;;;;;;;16.30;9.77;;;;;;;-1.35;100.00;99147.34;5002884;28;20120;-96
2024/01/18 01:56:30;;;;;;;12.32;8.73;;;;;;;-1.44;100.00;99135.31;4982001;28;20037;-96
2024/01/18 01:58:56;;;;;;;13.55;9.70;;;;;;;-1.35;100.00;99158.94;4968442;28;20031;-96
2024/01/18 02:01:21;;;;;;;13.25;8.68;;;;;;;-1.41;100.00;99159.31;4988351;28;20034;-96
2024/01/18 02:03:47;;;;;;;15.77;8.95;;;;;;;-1.50;100.00;99143.72;4969713;28;20035;-96
2024/01/18 02:06:15;;;;;;;14.60;9.48;;;;;;;-1.45;100.00;99138.94;4981032;28;20179;-96
2024/01/18 02:08:42;;;;;;;14.38;9.40;;;;;;;-1.46;100.00;99145.25;5000026;28;20025;-96
2024/01/18 02:11:08;;;;;;;14.88;9.48;;;;;;;-1.39;100.00;99161.91;5001797;28;20033;-96
2024/01/18 02:13:34;;;;;;;19.52;10.25;;;;;;;-1.51;100.00;99145.53;4985772;28;20034;-96
2024/01/18 02:15:59;;;;;;;14.57;9.63;;;;;;;-1.51;100.00;99152.72;5018408;28;20030;-96
2024/01/18 02:18:25;;;;;;;14.40;8.75;;;;;;;-1.52;100.00;99145.63;4981057;28;20480;-96
2024/01/18 02:20:51;;;;;;;13.73;8.75;;;;;;;-1.53;100.00;99135.84;4972579;28;20054;-96
2024/01/18 02:23:20;;;;;;;13.52;9.13;;;;;;;-1.43;100.00;99152.28;5000827;28;20041;-96
2024/01/18 02:25:47;;;;;;;18.13;9.75;;;;;;;-1.50;100.00;99151.75;4998638;28;20033;-96
2024/01/18 02:28:15;;;;;;;11.13;9.07;;;;;;;-1.57;100.00;99143.19;4998712;28;20383;-96
2024/01/18 02:30:41;;;;;;;14.90;10.05;;;;;;;-1.56;100.00;99146.75;4999375;28;20033;-96
2024/01/18 02:33:08;;;;;;;15.18;9.82;;;;;;;-1.58;100.00;99148.66;4998401;28;20034;-96
2024/01/18 02:35:34;;;;;;;13.10;8.48;;;;;;;-1.55;100.00;99157.38;5013936;28;20452;-96
2024/01/18 02:38:00;;;;;;;13.13;9.23;;;;;;;-1.49;100.00;99153.50;4999211;28;20029;-96
2024/01/18 02:40:26;;;;;;;14.07;8.93;;;;;;;-1.55;100.00;99143.97;4986258;28;20069;-96
2024/01/18 02:42:52;;;;;;;14.05;9.23;;;;;;;-1.54;100.00;99153.75;4982188;28;20035;-96
2024/01/18 02:45:19;;;;;;;11.73;8.82;;;;;;;-1.53;100.00;99149.25;4980852;28;20113;-96
2024/01/18 02:47:45;;;;;;;16.65;10.00;;;;;;;-1.56;100.00;99152.09;4996040;28;20039;-96
2024/01/18 02:50:10;;;;;;;11.40;8.60;;;;;;;-1.57;100.00;99151.25;4963928;28;20034;-96
2024/01/18 02:52:38;;;;;;;15.18;9.02;;;;;;;-1.52;100.00;99165.28;4963946;28;20062;-96
2024/01/18 02:55:04;;;;;;;14.20;8.75;;;;;;;-1.55;100.00;99161.91;4978803;28;20210;-93
2024/01/18 02:57:29;;;;;;;18.73;9.85;;;;;;;-1.53;100.00;99178.78;4962921;28;20026;-93
2024/01/18 02:59:55;;;;;;;15.60;9.95;;;;;;;-1.63;100.00;99167.69;4962891;28;20034;-92
2024/01/18 03:02:20;;;;;;;12.10;8.85;;;;;;;-1.65;100.00;99174.13;4994434;28;20041;-93
2024/01/18 03:04:45;;;;;;;15.48;9.48;;;;;;;-1.58;100.00;99172.81;4962529;28;20034;-92
2024/01/18 03:07:11;;;;;;;13.55;9.00;;;;;;;-1.52;100.00;99181.38;4978972;28;20196;-92
2024/01/18 03:09:37;;;;;;;15.68;9.07;;;;;;;-1.58;100.00;99170.97;4978488;28;20156;-92
2024/01/18 03:12:03;;;;;;;12.45;9.38;;;;;;;-1.55;100.00;99178.00;4962910;28;20060;-92
2024/01/18 03:14:28;;;;;;;15.57;9.80;;;;;;;-1.53;100.00;99163.53;4979465;28;20075;-92
2024/01/18 03:16:53;;;;;;;15.63;9.45;;;;;;;-1.54;100.00;99172.56;4978942;28;20034;-92
2024/01/18 03:19:19;;;;;;;15.07;10.13;;;;;;;-1.53;100.00;99170.72;4980876;28;20061;-92
2024/01/18 03:21:44;;;;;;;14.20;9.15;;;;;;;-1.59;100.00;99174.63;4976701;28;20034;-91
2024/01/18 03:24:10;;;;;;;15.35;9.52;;;;;;;-1.60;100.00;99172.88;4975206;28;20050;-92
2024/01/18 03:26:35;;;;;;;13.88;10.20;;;;;;;-1.59;100.00;99177.31;4962350;28;20033;-92
2024/01/18 03:29:01;;;;;;;13.25;9.80;;;;;;;-1.57;100.00;99175.41;4962120;28;20471;-92
2024/01/18 03:31:26;;;;;;;16.42;10.13;;;;;;;-1.58;100.00;99170.13;4978418;28;20463;-91
2024/01/18 03:33:52;;;;;;;17.50;9.73;;;;;;;-1.61;100.00;99173.84;5010207;28;20109;-92
2024/01/18 03:36:18;;;;;;;13.15;9.45;;;;;;;-1.51;100.00;99176.84;4963929;28;20216;-93
2024/01/18 03:38:43;;;;;;;13.13;9.40;;;;;;;-1.52;100.00;99183.19;4977836;28;20030;-93
2024/01/18 03:41:09;;;;;;;17.08;10.10;;;;;;;-1.52;100.00;99185.88;4961779;28;20111;-93
2024/01/18 03:43:34;;;;;;;13.35;9.70;;;;;;;-1.56;100.00;99187.88;5011037;28;20491;-93
2024/01/18 03:46:00;;;;;;;12.57;9.55;;;;;;;-1.62;100.00;99180.16;4961080;28;20457;-93
2024/01/18 03:48:25;;;;;;;19.05;9.38;;;;;;;-1.68;100.00;99169.78;4978393;28;20023;-92
2024/01/18 03:50:51;;;;;;;13.75;9.70;;;;;;;-1.57;100.00;99193.34;4980377;28;20476;-92
2024/01/18 03:53:18;;;;;;;12.98;9.68;;;;;;;-1.62;100.00;99185.53;4985072;28;20034;-92
2024/01/18 03:55:43;;;;;;;13.88;10.48;;;;;;;-1.60;100.00;99189.00;4969251;28;20026;-91
2024/01/18 03:58:09;;;;;;;14.95;9.65;;;;;;;-1.67;100.00;99188.47;4987781;28;20068;-91
2024/01/18 04:00:34;;;;;;;16.73;9.52;;;;;;;-1.67;100.00;99191.16;4998571;28;20090;-93
2024/01/18 04:03:00;;;;;;;15.40;9.93;;;;;;;-1.60;100.00;99198.88;4982344;28;20099;-92
2024/01/18 04:05:25;;;;;;;16.02;9.88;;;;;;;-1.56;100.00;99201.28;4982785;28;20046;-92
2024/01/18 04:07:51;;;;;;;17.42;10.10;;;;;;;-1.58;100.00;99219.28;4999179;28;20027;-94
2024/01/18 04:10:17;;;;;;;17.05;10.48;;;;;;;-1.68;100.00;99210.88;5015411;28;20018;-93
2024/01/18 04:12:43;;;;;;;15.40;9.85;;;;;;;-1.70;100.00;99218.16;5014804;28;20029;-93
2024/01/18 04:15:09;;;;;;;18.33;10.50;;;;;;;-1.74;100.00;99203.19;4982411;28;20027;-93
2024/01/18 04:17:34;;;;;;;15.55;10.40;;;;;;;-1.75;100.00;99217.53;5028609;28;20038;-92
2024/01/18 04:20:05;;;;;;;16.13;9.82;;;;;;;-1.81;100.00;99220.56;5005857;28;20010;-91
2024/01/18 04:22:30;;;;;;;20.30;10.73;;;;;;;-1.74;100.00;99224.66;4979920;28;20006;-91
2024/01/18 04:24:57;;;;;;;18.23;10.57;;;;;;;-1.74;100.00;99224.66;5003184;28;20027;-91
2024/01/18 04:27:22;;;;;;;13.75;10.10;;;;;;;-1.79;100.00;99213.28;4967830;28;20026;-90
2024/01/18 04:29:48;;;;;;;15.85;9.95;;;;;;;-1.86;100.00;99214.56;4984618;28;20030;-93
2024/01/18 04:32:13;;;;;;;19.92;10.77;;;;;;;-1.78;100.00;99233.81;4989407;28;20026;-89
2024/01/18 04:34:38;;;;;;;16.42;10.18;;;;;;;-1.81;100.00;99212.50;5008087;28;20061;-93
2024/01/18 04:37:04;;;;;;;16.80;10.82;;;;;;;-1.80;100.00;99216.03;5025042;28;20035;-89
2024/01/18 04:39:29;;;;;;;17.67;11.30;;;;;;;-1.80;100.00;99235.72;4967716;28;20027;-91
2024/01/18 04:41:55;;;;;;;15.13;10.77;;;;;;;-1.79;100.00;99231.19;4985265;28;20480;-90
2024/01/18 04:44:23;;;;;;;13.00;9.50;;;;;;;-1.82;100.00;99232.25;4962042;28;20041;-91
2024/01/18 04:46:48;;;;;;;18.20;10.05;;;;;;;-1.93;100.00;99223.91;4960356;28;20030;-90
2024/01/18 04:49:13;;;;;;;15.95;11.50;;;;;;;-1.97;100.00;99227.69;4959968;28;20037;-90
2024/01/18 04:51:39;;;;;;;17.10;10.82;;;;;;;-1.92;100.00;99239.03;4959773;28;20034;-90
2024/01/18 04:54:05;;;;;;;13.45;10.35;;;;;;;-1.89;100.00;99250.47;4975842;28;20049;-90
2024/01/18 04:56:31;;;;;;;13.45;10.27;;;;;;;-1.83;100.00;99251.13;4992166;28;20088;-91
2024/01/18 04:58:56;;;;;;;14.07;10.05;;;;;;;-1.86;100.00;99252.97;4960076;28;20022;-92
2024/01/18 05:01:22;;;;;;;13.60;10.02;;;;;;;-1.90;100.00;99259.47;5008496;28;20464;-90
2024/01/18 05:03:47;;;;;;;16.55;11.32;;;;;;;-1.90;100.00;99266.66;4991631;28;20038;-87
2024/01/18 05:06:13;;;;;;;15.63;10.63;;;;;;;-1.93;100.00;99267.69;4974380;28;20130;-88
2024/01/18 05:08:38;;;;;;;17.05;10.77;;;;;;;-1.89;100.00;99276.44;4975404;28;20033;-89
2024/01/18 05:11:04;;;;;;;16.00;10.07;;;;;;;-1.93;100.00;99274.88;4975066;28;20540;-89
2024/01/18 05:13:58;;;;;;;20.55;11.07;;;;;;;-1.92;100.00;99273.91;5009627;28;20026;-96
2024/01/18 05:45:30;;;;;;;16.20;11.80;;;;;;;-2.25;100.00;99291.72;5051719;28;20041;-91
2024/01/18 05:48:01;;;;;;;19.05;11.82;;;;;;;-2.28;100.00;99307.94;5004446;28;20033;-87
2024/01/18 05:50:26;;;;;;;17.83;10.48;;;;;;;-2.31;100.00;99309.91;5005236;28;20044;-87
2024/01/18 05:52:53;;;;;;;15.38;11.48;;;;;;;-2.38;100.00;99308.50;5020754;28;20032;-87
2024/01/18 05:55:19;;;;;;;17.75;11.75;;;;;;;-2.43;100.00;99319.44;5023566;28;20033;-86
2024/01/18 05:57:47;;;;;;;17.13;11.13;;;;;;;-2.50;100.00;99326.91;5021696;28;20036;-88
2024/01/18 06:00:14;;;;;;;15.65;11.20;;;;;;;-2.53;100.00;99324.38;5037227;28;20033;-88
2024/01/18 06:02:41;;;;;;;16.92;11.48;;;;;;;-2.51;100.00;99327.88;4998511;28;20063;-89
2024/01/18 06:05:07;;;;;;;18.42;10.82;;;;;;;-2.56;100.00;99329.03;4984251;28;20075;-89
2024/01/18 06:07:33;;;;;;;16.42;11.27;;;;;;;-2.53;100.00;99335.09;5000100;28;20029;-90
2024/01/18 06:09:59;;;;;;;15.68;11.35;;;;;;;-2.58;100.00;99337.16;4987318;28;20038;-90
2024/01/18 06:12:25;;;;;;;15.63;10.57;;;;;;;-2.57;100.00;99341.59;5004197;28;20025;-90
2024/01/18 06:14:51;;;;;;;16.58;10.93;;;;;;;-2.63;100.00;99345.41;5021343;28;20025;-90
2024/01/18 06:17:17;;;;;;;13.60;10.10;;;;;;;-2.62;100.00;99354.34;5004548;28;20028;-90
2024/01/18 06:19:42;;;;;;;20.35;11.85;;;;;;;-2.69;100.00;99352.88;5004014;28;20026;-90
2024/01/18 06:22:08;;;;;;;15.43;11.13;;;;;;;-2.68;100.00;99360.00;4987223;28;20083;-91
2024/01/18 06:24:34;;;;;;;17.55;11.82;;;;;;;-2.68;100.00;99358.16;4987569;28;20041;-88
2024/01/18 06:26:59;;;;;;;19.02;12.52;;;;;;;-2.75;100.00;99362.09;5004683;28;20479;-89
2024/01/18 06:29:29;;;;;;;19.85;11.32;;;;;;;-2.68;100.00;99376.91;5003781;28;20474;-87
2024/01/18 06:31:54;;;;;;;21.02;12.40;;;;;;;-2.81;100.00;99378.47;4987992;28;20391;-87
2024/01/18 06:34:20;;;;;;;17.55;11.13;;;;;;;-2.81;100.00;99382.00;5002716;28;20040;-88
2024/01/18 06:36:45;;;;;;;23.90;11.70;;;;;;;-2.90;100.00;99377.09;4987160;28;20037;-88
2024/01/18 06:39:13;;;;;;;16.17;11.25;;;;;;;-2.96;100.00;99388.09;4986637;28;20029;-88
2024/01/18 06:41:39;;;;;;;14.50;10.93;;;;;;;-2.84;100.00;99402.72;4987479;28;20037;-88
2024/01/18 06:44:05;;;;;;;17.27;11.90;;;;;;;-2.89;100.00;99396.72;5003467;28;20030;-87
2024/01/18 06:46:31;;;;;;;17.83;11.38;;;;;;;-2.90;100.00;99405.66;5003078;28;20061;-88
2024/01/18 06:48:57;;;;;;;16.63;12.13;;;;;;;-2.84;100.00;99398.22;4988611;28;20031;-88
2024/01/18 06:51:23;;;;;;;19.13;11.98;;;;;;;-2.85;100.00;99395.63;4990737;28;20056;-87
2024/01/18 06:53:49;;;;;;;21.23;12.05;;;;;;;-2.90;100.00;99401.19;5009199;28;20026;-88
2024/01/18 06:56:15;;;;;;;20.80;12.25;;;;;;;-2.94;100.00;99402.28;5009029;28;20029;-88
2024/01/18 06:58:41;;;;;;;23.33;12.30;;;;;;;-2.91;100.00;99406.63;5005693;28;20545;-87
2024/01/18 07:01:06;;;;;;;18.85;11.93;;;;;;;-2.96;100.00;99409.50;5035168;28;20040;-87
2024/01/18 07:03:35;;;;;;;24.08;12.52;;;;;;;-2.96;100.00;99415.72;5002646;28;20029;-87
2024/01/18 07:06:04;;;;;;;16.80;11.60;;;;;;;-2.94;100.00;99426.38;5002802;28;20068;-87
2024/01/18 07:08:30;;;;;;;18.65;11.75;;;;;;;-2.99;100.00;99428.41;5002622;28;20025;-87
2024/01/18 07:10:55;;;;;;;18.63;11.00;;;;;;;-2.94;100.00;99428.19;5002571;28;20029;-88
2024/01/18 07:13:21;;;;;;;21.85;11.75;;;;;;;-2.95;100.00;99443.41;4986859;28;20030;-87
2024/01/18 07:15:46;;;;;;;15.07;11.10;;;;;;;-2.95;100.00;99443.41;5019320;28;20411;-87
2024/01/18 07:18:13;;;;;;;17.85;12.07;;;;;;;-2.94;100.00;99444.25;5004323;28;20045;-88
2024/01/18 07:20:39;;;;;;;15.93;11.73;;;;;;;-2.96;100.00;99447.84;5003318;28;20036;-90
2024/01/18 07:23:11;;;;;;;14.40;10.43;;;;;;;-2.99;100.00;99461.38;5002574;28;20029;-88
2024/01/18 07:25:36;;;;;;;16.23;10.57;;;;;;;-3.03;100.00;99458.94;5002672;28;20025;-88
2024/01/18 07:28:02;;;;;;;14.85;11.18;;;;;;;-3.00;100.00;99454.31;5002160;28;20022;-88
2024/01/18 07:30:30;;;;;;;19.58;12.05;;;;;;;-2.99;100.00;99455.19;4987092;28;20053;-90
2024/01/18 07:32:55;;;;;;;21.63;12.10;;;;;;;-3.01;100.00;99459.75;5005484;28;20116;-92
2024/01/18 07:35:21;;;;;;;22.25;11.57;;;;;;;-3.04;100.00;99459.88;5003221;28;20117;-88
2024/01/18 07:37:46;;;;;;;19.95;12.32;;;;;;;-3.10;100.00;99465.50;5004975;28;20122;-91
2024/01/18 07:40:12;;;;;;;22.27;12.30;;;;;;;-3.07;100.00;99473.41;5003116;28;20021;-93
2024/01/18 07:42:37;;;;;;;20.30;13.20;;;;;;;-3.10;100.00;99487.78;5002943;28;20025;-91
2024/01/18 07:45:03;;;;;;;22.00;13.18;;;;;;;-3.15;100.00;99490.69;4987002;28;20487;-91
2024/01/18 07:47:28;;;;;;;21.67;13.35;;;;;;;-3.14;100.00;99495.09;5003026;28;20060;-89
2024/01/18 07:49:54;;;;;;;20.40;12.27;;;;;;;-3.05;100.00;99490.25;4986801;28;20467;-91
2024/01/18 07:52:20;;;;;;;20.63;12.80;;;;;;;-3.12;100.00;99480.78;4990407;28;20513;-92
2024/01/18 07:54:49;;;;;;;19.02;12.32;;;;;;;-3.13;100.00;99493.28;5038318;28;20010;-92
2024/01/18 07:57:16;;;;;;;21.48;13.20;;;;;;;-3.17;100.00;99505.06;5008333;28;20056;-96
2024/01/18 07:59:42;;;;;;;16.50;11.90;;;;;;;-3.16;100.00;99496.09;5026429;28;20022;-91
2024/01/18 08:02:07;;;;;;;19.17;12.40;;;;;;;-3.18;100.00;99514.91;5011961;28;20056;-87
2024/01/18 08:04:33;;;;;;;24.33;13.68;;;;;;;-3.15;100.00;99512.09;4998687;28;20026;-85
2024/01/18 08:06:58;;;;;;;26.73;13.48;;;;;;;-3.11;100.00;99520.84;5001437;28;20372;-88
2024/01/18 08:09:24;;;;;;;22.35;13.30;;;;;;;-3.08;100.00;99525.19;4986242;28;20099;-90
2024/01/18 08:11:50;;;;;;;19.10;12.88;;;;;;;-3.12;100.00;99528.94;5003106;28;20029;-90
2024/01/18 08:14:15;;;;;;;19.08;13.50;;;;;;;-3.17;100.00;99524.66;4986568;28;20501;-90
2024/01/18 08:16:41;;;;;;;27.13;14.25;;;;;;;-3.18;100.00;99527.41;4987690;28;20475;-92
2024/01/18 08:19:07;;;;;;;22.52;13.77;;;;;;;-3.17;100.00;99534.50;4988304;28;20037;-91
2024/01/18 08:21:32;;;;;;;18.13;12.95;;;;;;;-3.08;100.00;99534.09;4987991;28;20040;-87
2024/01/18 08:23:58;;;;;;;20.80;13.57;;;;;;;-3.13;100.00;99536.13;5001433;28;20033;-87
2024/01/18 08:26:23;;;;;;;24.27;14.23;;;;;;;-3.10;100.00;99540.44;5000214;28;20500;-85
2024/01/18 08:28:49;;;;;;;20.20;13.98;;;;;;;-3.07;100.00;99538.50;5016567;28;20026;-87
2024/01/18 08:31:14;;;;;;;22.50;14.45;;;;;;;-2.98;100.00;99545.28;5000315;28;20400;-88
2024/01/18 08:33:40;;;;;;;19.70;12.55;;;;;;;-2.92;100.00;99552.16;5015963;28;20029;-91
2024/01/18 08:36:08;;;;;;;20.35;13.00;;;;;;;-2.89;100.00;99555.56;4985434;28;20063;-90
2024/01/18 08:38:33;;;;;;;21.90;13.15;;;;;;;-2.85;100.00;99559.00;5002112;28;20032;-90
2024/01/18 08:40:59;;;;;;;17.75;13.50;;;;;;;-2.85;100.00;99551.81;5017474;28;20105;-89
2024/01/18 08:43:27;;;;;;;19.73;12.35;;;;;;;-2.73;100.00;99577.16;4985116;28;20124;-88
2024/01/18 08:45:53;;;;;;;20.15;11.95;;;;;;;-2.76;100.00;99582.66;4984597;28;20053;-88
2024/01/18 08:48:20;;;;;;;21.23;12.80;;;;;;;-2.67;100.00;99574.22;5017689;28;20033;-88
2024/01/18 08:50:45;;;;;;;19.33;13.75;;;;;;;-2.66;100.00;99583.97;5001776;28;20064;-89
2024/01/18 08:53:11;;;;;;;17.52;12.93;;;;;;;-2.59;100.00;99585.44;5005737;28;20021;-89
2024/01/18 08:55:38;;;;;;;23.00;12.93;;;;;;;-2.54;100.00;99585.25;4988381;28;20093;-88
2024/01/18 08:58:04;;;;;;;15.73;12.32;;;;;;;-2.49;100.00;99587.69;4984615;28;20068;-88
2024/01/18 09:00:30;;;;;;;15.95;12.40;;;;;;;-2.45;100.00;99608.06;5017166;28;20041;-88
2024/01/18 09:02:55;;;;;;;17.10;11.82;;;;;;;-2.45;100.00;99597.34;4984901;28;20507;-88
2024/01/18 09:05:21;;;;;;;19.05;11.40;;;;;;;-2.43;100.00;99601.72;5001041;28;20029;-90
2024/01/18 09:07:46;;;;;;;21.00;12.43;;;;;;;-2.32;100.00;99611.91;4984200;28;20041;-87
2024/01/18 09:10:12;;;;;;;14.48;11.52;;;;;;;-2.31;100.00;99623.50;5000130;28;20026;-87
2024/01/18 09:12:37;;;;;;;14.00;9.60;;;;;;;-2.27;100.00;99620.59;4983704;28;20112;-86
2024/01/18 09:15:04;;;;;;;15.93;10.15;;;;;;;-2.15;100.00;99626.34;5018174;28;20045;-87
2024/01/18 09:17:31;;;;;;;17.40;10.35;;;;;;;-2.13;100.00;99628.03;4987946;28;20029;-87
2024/01/18 09:19:58;;;;;;;15.18;10.05;;;;;;;-2.06;100.00;99626.78;5001008;28;20036;-87
2024/01/18 09:22:23;;;;;;;16.27;9.80;;;;;;;-2.01;100.00;99631.94;4984637;28;20026;-88
2024/01/18 09:24:50;;;;;;;10.88;9.20;;;;;;;-1.96;100.00;99618.31;5000633;28;20060;-89
2024/01/18 09:27:16;;;;;;;13.80;8.90;;;;;;;-1.86;100.00;99633.00;4984653;28;20129;-89
2024/01/18 09:29:41;;;;;;;13.40;8.93;;;;;;;-1.78;100.00;99635.34;4983794;28;20116;-86
2024/01/18 09:32:08;;;;;;;15.65;8.27;;;;;;;-1.68;100.00;99642.00;4984708;28;20030;-89
2024/01/18 09:34:34;;;;;;;11.25;7.63;;;;;;;-1.59;100.00;99646.03;5001455;28;20033;-89
2024/01/18 09:36:59;;;;;;;12.45;8.45;;;;;;;-1.43;100.00;99657.75;5016343;28;20035;-90
2024/01/18 09:39:29;;;;;;;11.15;7.65;;;;;;;-1.45;100.00;99669.53;5016589;28;20411;-89
2024/01/18 09:41:55;;;;;;;9.32;7.55;;;;;;;-1.30;100.00;99663.38;5001977;28;20120;-89
2024/01/18 09:44:26;;;;;;;9.32;7.10;;;;;;;-1.14;100.00;99683.16;5021250;28;20045;-88
2024/01/18 09:46:53;;;;;;;11.93;7.80;;;;;;;-1.14;100.00;99685.00;5021783;28;20034;-88
2024/01/18 09:49:19;;;;;;;10.45;7.30;;;;;;;-1.03;100.00;99688.00;5022582;28;20026;-88
2024/01/18 09:51:45;;;;;;;12.35;7.07;;;;;;;-0.82;100.00;99701.28;4994669;28;20044;-91
2024/01/18 09:54:11;;;;;;;9.65;6.63;;;;;;;-0.69;100.00;99705.06;5025060;28;20040;-91
2024/01/18 09:56:42;;;;;;;11.02;6.43;;;;;;;-0.61;100.00;99699.31;5039427;28;20053;-92
2024/01/18 09:59:11;;;;;;;9.63;6.50;;;;;;;-0.51;100.00;99708.63;5038909;28;20018;-91
2024/01/18 10:01:36;;;;;;;7.93;6.15;;;;;;;-0.16;100.00;99708.63;5038592;28;20093;-92
2024/01/18 10:04:02;;;;;;;7.00;5.05;;;;;;;0.01;100.00;99723.84;5037431;28;20034;-94
2024/01/18 10:06:28;;;;;;;8.30;5.32;;;;;;;-0.17;100.00;99728.38;5023374;28;20055;-91
2024/01/18 10:08:53;;;;;;;7.68;4.80;;;;;;;-0.18;100.00;99721.28;5032079;28;20084;-96
2024/01/18 10:11:19;;;;;;;7.72;4.78;;;;;;;0.09;100.00;99732.38;5029082;28;20044;-94
2024/01/18 10:13:56;;;;;;;5.82;4.53;;;;;;;0.50;100.00;99737.28;5013069;28;20043;-95
2024/01/18 10:16:29;;;;;;;5.60;4.63;;;;;;;0.40;100.00;99746.84;5030468;28;20036;-96
2024/01/18 10:19:01;;;;;;;8.07;4.55;;;;;;;0.22;100.00;99735.25;5028479;28;20471;-95
2024/01/18 10:21:28;;;;;;;8.90;4.68;;;;;;;0.44;100.00;99758.31;5022515;28;20383;-95
2024/01/18 10:23:54;;;;;;;7.95;4.38;;;;;;;0.53;100.00;99755.97;5021874;28;20497;-95
2024/01/18 10:26:27;;;;;;;6.47;4.10;;;;;;;0.44;100.00;99761.88;4989561;28;20037;-94
2024/01/18 10:28:53;;;;;;;6.78;4.25;;;;;;;0.64;100.00;99758.09;5021407;28;20152;-94
2024/01/18 10:31:19;;;;;;;6.35;4.25;;;;;;;0.79;100.00;99766.25;5004470;28;20067;-94
2024/01/18 10:33:47;;;;;;;7.10;4.47;;;;;;;0.88;100.00;99763.03;4988419;28;20175;-93
2024/01/18 10:36:13;;;;;;;5.13;4.25;;;;;;;0.88;100.00;99765.72;4988410;28;20052;-94
2024/01/18 10:38:41;;;;;;;8.60;4.53;;;;;;;0.89;100.00;99778.25;5004335;28;20029;-93
2024/01/18 10:41:10;;;;;;;6.50;4.53;;;;;;;0.94;100.00;99781.56;5004645;28;20025;-93
2024/01/18 10:43:37;;;;;;;8.30;3.90;;;;;;;1.06;100.00;99785.38;5020622;28;20108;-92
2024/01/18 10:46:04;;;;;;;6.45;3.97;;;;;;;1.28;100.00;99785.88;4988149;28;20509;-92
2024/01/18 10:48:30;;;;;;;6.63;3.25;;;;;;;1.29;100.00;99792.13;5006371;28;20117;-92
2024/01/18 10:50:56;;;;;;;9.18;3.40;;;;;;;1.54;100.00;99790.69;5009365;28;20040;-92
2024/01/18 10:53:26;;;;;;;3.50;3.08;;;;;;;1.83;100.00;99789.81;5009058;28;20053;-91
2024/01/18 10:55:52;;;;;;;3.40;2.83;;;;;;;1.75;100.00;99786.72;4989088;28;20026;-90
2024/01/18 10:58:19;;;;;;;6.13;2.90;;;;;;;1.72;100.00;99794.13;5004681;28;20025;-90
2024/01/18 11:00:46;;;;;;;4.70;2.97;;;;;;;2.09;100.00;99778.41;5003976;28;20570;-88
2024/01/18 11:03:14;;;;;;;4.05;2.72;;;;;;;2.14;100.00;99801.47;5020043;28;20508;-90
2024/01/18 11:05:41;;;;;;;2.80;2.30;;;;;;;2.16;100.00;99802.22;5003600;28;20030;-89
2024/01/18 11:08:07;;;;;;;4.28;2.42;;;;;;;2.24;100.00;99798.19;5019327;28;20041;-88
2024/01/18 11:10:34;;;;;;;4.47;2.40;;;;;;;2.31;100.00;99813.03;5019430;28;20490;-88
2024/01/18 11:13:00;;;;;;;3.72;1.88;;;;;;;2.51;100.00;99818.09;5002791;28;20506;-91
2024/01/18 11:15:26;;;;;;;5.97;2.00;;;;;;;2.53;100.00;99808.06;5018501;28;20021;-89
2024/01/18 11:17:52;;;;;;;5.22;2.50;;;;;;;2.81;100.00;99798.19;4985962;28;20515;-88
2024/01/18 11:20:18;;;;;;;3.25;2.20;;;;;;;3.00;100.00;99807.81;4986102;28;20030;-89
2024/01/18 11:22:47;;;;;;;3.10;1.90;;;;;;;2.69;100.00;99812.47;4986451;28;20030;-89
2024/01/18 11:25:26;;;;;;;4.47;1.60;;;;;;;2.72;100.00;99821.28;5035423;28;20514;-87
2024/01/18 11:27:53;;;;;;;2.42;1.55;;;;;;;2.55;100.00;99821.47;5017857;28;20022;-85
2024/01/18 11:30:35;;;;;;;3.00;1.75;;;;;;;2.76;100.00;99828.22;4985488;28;20052;-86
2024/01/18 11:33:03;;;;;;;2.75;1.67;;;;;;;2.61;100.00;99831.00;5017051;28;20033;-86
2024/01/18 11:35:29;;;;;;;4.65;1.70;;;;;;;2.66;100.00;99835.19;5001340;28;20509;-86
2024/01/18 11:38:28;;;;;;;4.72;1.60;;;;;;;2.57;100.00;99836.63;4984144;28;20033;-85
2024/01/18 11:41:18;;;;;;;3.78;1.48;;;;;;;2.75;100.00;99841.81;5036509;28;20061;-89
2024/01/18 11:44:00;;;;;;;3.42;1.60;;;;;;;2.53;100.00;99843.19;5019387;28;20017;-88